This is the latest recevied weather packets stored in our database for station/object KC4GS-13. If no packets are shown the sender has not sent any weather packets the latest 10 day(s).
| Time | Temp. | Humidity | Pressure | Rain* | Wind** | Luminosity | Snow |
|---|---|---|---|---|---|---|---|
| 1778009122 | 30° C | 38% | 1016 hPa | 0 mm | - | 764 W/m² | - |
| 1778008819 | 28.89° C | 40% | 1016.4 hPa | 0 mm | - | 797 W/m² | - |
| 1778008517 | 27.78° C | 42% | 1016.4 hPa | 0 mm | - | 177 W/m² | - |
| 1778008214 | 28.33° C | 40% | 1016.3 hPa | 0 mm | - | 547 W/m² | - |
| 1778007909 | 28.89° C | 41% | 1016.5 hPa | 0 mm | - | 519 W/m² | - |
| 1778007605 | 29.44° C | 38% | 1016.5 hPa | 0 mm | - | 626 W/m² | - |
| 1778007302 | 28.89° C | 39% | 1016.5 hPa | 0 mm | - | 822 W/m² | - |
| 1778006998 | 28.89° C | 41% | 1016.7 hPa | 0 mm | - | 655 W/m² | - |
| 1778006695 | 28.33° C | 42% | 1016.8 hPa | 0 mm | - | 695 W/m² | - |
| 1778006392 | 28.89° C | 39% | 1017 hPa | 0 mm | - | 182 W/m² | - |
| 1778006089 | 28.33° C | 42% | 1016.9 hPa | 0 mm | - | 769 W/m² | - |
| 1778005785 | 28.89° C | 41% | 1016.9 hPa | 0 mm | - | 234 W/m² | - |
| 1778005482 | 28.89° C | 41% | 1017.1 hPa | 0 mm | - | 622 W/m² | - |
| 1778005179 | 28.33° C | 42% | 1016.9 hPa | 0 mm | - | 767 W/m² | - |
| 1778004876 | 28.33° C | 43% | 1017.1 hPa | 0 mm | - | 671 W/m² | - |
| 1778004573 | 28.33° C | 42% | 1017.6 hPa | 0 mm | - | 798 W/m² | - |
| 1778004269 | 28.33° C | 42% | 1017.2 hPa | 0 mm | - | 365 W/m² | - |
| 1778003966 | 28.89° C | 42% | 1017.2 hPa | 0 mm | - | 829 W/m² | - |
| 1778003662 | 28.89° C | 40% | 1017.4 hPa | 0 mm | - | 828 W/m² | - |
| 1778003359 | 28.33° C | 41% | 1017.3 hPa | 0 mm | - | 837 W/m² | - |
| 1778003057 | 28.33° C | 41% | 1017.3 hPa | 0 mm | - | 839 W/m² | - |
| 1778002752 | 28.33° C | 42% | 1017.2 hPa | 0 mm | - | 202 W/m² | - |
| 1778002449 | 27.78° C | 42% | 1017.6 hPa | 0 mm | - | 801 W/m² | - |
| 1778002146 | 28.33° C | 41% | 1017.6 hPa | 0 mm | - | 857 W/m² | - |
| 1778001844 | 27.78° C | 42% | 1017.5 hPa | 0 mm | - | 880 W/m² | - |
* Rain latest hour (hover to see other rain measurements)
** Current wind speed in m/s (hover to see current wind gust speed)